createdAt,value
2022-09-10T00:01:32.782Z,5.68
2022-09-10T00:04:01.781Z,7.07
2022-09-10T00:06:31.713Z,5.63
2022-09-10T00:09:01.135Z,5.25
2022-09-10T00:11:32.326Z,5.88
2022-09-10T00:14:01.295Z,6.03
2022-09-10T00:16:30.517Z,7.05
2022-09-10T00:18:58.891Z,6.95
2022-09-10T00:21:26.556Z,7.07
2022-09-10T00:23:54.351Z,7.85
2022-09-10T00:26:27.221Z,9.25
2022-09-10T00:28:59.496Z,4.55
2022-09-10T00:31:32.204Z,5.13
2022-09-10T00:34:02.415Z,4.47
2022-09-10T00:36:40.919Z,10.45
2022-09-10T00:39:14.426Z,7.35
2022-09-10T00:44:41.019Z,6.63
2022-09-10T00:47:33.653Z,5.57
2022-09-10T00:50:16.084Z,5.28
2022-09-10T00:52:47.535Z,5.38
2022-09-10T00:55:23.360Z,7.63
2022-09-10T00:57:56.674Z,6.47
2022-09-10T01:00:26.859Z,6.90
2022-09-10T01:02:55.053Z,5.65
2022-09-10T01:05:23.447Z,6.18
2022-09-10T01:07:58.010Z,4.65
2022-09-10T01:10:29.554Z,4.35
2022-09-10T01:13:33.479Z,8.40
2022-09-10T01:16:53.239Z,6.85
2022-09-10T01:20:01.930Z,8.07
2022-09-10T01:23:15.783Z,6.95
2022-09-10T01:26:15.072Z,4.90
2022-09-10T01:28:55.136Z,6.43
2022-09-10T01:31:32.529Z,9.80
2022-09-10T01:34:31.906Z,3.33
2022-09-10T01:37:06.355Z,5.13
2022-09-10T01:39:34.899Z,8.50
2022-09-10T01:42:04.775Z,4.80
2022-09-10T01:44:54.194Z,4.78
2022-09-10T01:47:35.235Z,5.18
2022-09-10T01:50:05.632Z,8.02
2022-09-10T01:52:46.062Z,7.80
2022-09-10T01:55:13.249Z,6.47
2022-09-10T01:57:52.831Z,5.97
2022-09-10T02:00:22.259Z,3.63
2022-09-10T02:03:02.030Z,6.30
2022-09-10T02:05:35.342Z,5.70
2022-09-10T02:08:08.749Z,6.70
2022-09-10T02:13:18.231Z,6.72
2022-09-10T02:15:48.294Z,10.13
2022-09-10T02:18:19.597Z,6.53
2022-09-10T02:20:51.475Z,6.53
2022-09-10T02:23:22.943Z,4.07
2022-09-10T02:25:50.600Z,7.25
2022-09-10T02:28:20.408Z,5.38
2022-09-10T02:30:48.304Z,5.97
2022-09-10T02:33:18.475Z,7.35
2022-09-10T02:35:47.758Z,5.25
2022-09-10T02:38:15.712Z,8.88
2022-09-10T02:40:43.259Z,7.35
2022-09-10T02:43:10.482Z,5.80
2022-09-10T02:45:41.140Z,6.50
2022-09-10T02:48:08.427Z,7.60
2022-09-10T02:50:36.541Z,6.63
2022-09-10T02:53:07.315Z,7.10
2022-09-10T02:55:37.993Z,11.27
2022-09-10T02:58:05.660Z,5.47
2022-09-10T03:00:35.119Z,6.88
2022-09-10T03:03:03.273Z,5.45
2022-09-10T03:05:30.678Z,7.13
2022-09-10T03:07:57.994Z,8.38
2022-09-10T03:10:25.306Z,6.32
2022-09-10T03:12:53.947Z,9.07
2022-09-10T03:15:22.854Z,9.98
2022-09-10T03:17:50.886Z,9.20
2022-09-10T03:20:18.761Z,8.07
2022-09-10T03:22:46.128Z,6.72
2022-09-10T03:25:15.949Z,9.90
2022-09-10T03:27:43.553Z,9.77
2022-09-10T03:30:11.098Z,8.38
2022-09-10T03:32:40.468Z,7.25
2022-09-10T03:35:08.357Z,9.30
2022-09-10T03:37:35.767Z,9.38
2022-09-10T03:40:03.705Z,10.40
2022-09-10T03:42:36.170Z,9.88
2022-09-10T03:45:04.121Z,11.63
2022-09-10T03:47:34.281Z,9.40
2022-09-10T03:50:04.718Z,13.35
2022-09-10T03:52:31.974Z,7.97
2022-09-10T03:54:59.182Z,9.70
2022-09-10T03:57:27.026Z,9.90
2022-09-10T03:59:54.781Z,15.63
2022-09-10T04:02:22.519Z,12.50
2022-09-10T04:04:50.205Z,10.82
2022-09-10T04:07:17.449Z,13.05
2022-09-10T04:09:45.096Z,11.38
2022-09-10T04:12:12.323Z,14.57
2022-09-10T04:14:39.930Z,14.13
2022-09-10T04:17:07.579Z,13.98
2022-09-10T04:19:35.402Z,12.73
2022-09-10T04:22:03.074Z,12.05
2022-09-10T04:24:30.630Z,13.30
2022-09-10T04:26:58.946Z,15.13
2022-09-10T04:29:26.648Z,13.05
2022-09-10T04:31:55.952Z,13.75
2022-09-10T04:34:23.205Z,18.05
2022-09-10T04:36:50.424Z,14.05
2022-09-10T04:39:20.186Z,13.73
2022-09-10T04:41:50.050Z,14.45
2022-09-10T04:44:20.167Z,14.50
2022-09-10T04:46:49.873Z,18.83
2022-09-10T04:49:19.645Z,16.23
2022-09-10T04:51:47.099Z,14.95
2022-09-10T04:54:14.557Z,15.93
2022-09-10T04:56:43.161Z,14.35
2022-09-10T04:59:10.881Z,15.73
2022-09-10T05:01:40.627Z,15.13
2022-09-10T05:04:08.016Z,13.10
2022-09-10T05:06:35.638Z,14.02
2022-09-10T05:09:03.400Z,15.68
2022-09-10T05:11:31.416Z,13.70
2022-09-10T05:13:59.189Z,17.70
2022-09-10T05:16:29.038Z,17.33
2022-09-10T05:18:57.087Z,13.73
2022-09-10T05:21:26.515Z,19.98
2022-09-10T05:23:53.901Z,15.45
2022-09-10T05:26:21.086Z,15.52
2022-09-10T05:28:53.378Z,17.83
2022-09-10T05:31:22.834Z,15.95
2022-09-10T05:33:50.187Z,14.43
2022-09-10T05:36:17.404Z,20.30
2022-09-10T05:38:47.249Z,18.20
2022-09-10T05:41:14.483Z,20.27
2022-09-10T05:43:44.319Z,16.58
2022-09-10T05:46:14.204Z,21.08
2022-09-10T05:48:41.958Z,20.23
2022-09-10T05:51:09.331Z,20.17
2022-09-10T05:53:38.236Z,17.95
2022-09-10T05:56:06.545Z,20.92
2022-09-10T05:58:36.616Z,24.70
2022-09-10T06:01:03.898Z,18.27
2022-09-10T06:03:31.111Z,22.88
2022-09-10T06:05:58.494Z,21.08
2022-09-10T06:08:25.719Z,20.92
2022-09-10T06:11:05.328Z,22.23
2022-09-10T06:13:37.370Z,30.33
2022-09-10T06:16:05.206Z,24.83
2022-09-10T06:18:33.250Z,20.45
2022-09-10T06:21:11.696Z,28.90
2022-09-10T06:23:42.252Z,20.67
2022-09-10T06:26:20.071Z,24.55
2022-09-10T06:28:49.752Z,18.63
2022-09-10T06:31:18.012Z,19.02
2022-09-10T06:33:47.053Z,19.52
2022-09-10T06:36:21.013Z,18.92
2022-09-10T06:38:49.565Z,17.63
2022-09-10T06:41:19.424Z,22.30
2022-09-10T06:43:47.246Z,19.17
2022-09-10T06:46:50.826Z,21.23
2022-09-10T06:49:05.595Z,17.27
2022-09-10T06:51:35.296Z,23.13
2022-09-10T06:54:05.015Z,21.65
2022-09-10T06:56:34.605Z,22.02
2022-09-10T06:59:02.748Z,21.35
2022-09-10T07:01:30.796Z,19.33
2022-09-10T07:04:06.551Z,20.90
2022-09-10T07:06:35.672Z,19.10
2022-09-10T07:09:04.335Z,21.52
2022-09-10T07:11:32.489Z,19.55
2022-09-10T07:14:02.679Z,18.55
2022-09-10T07:16:30.443Z,19.90
2022-09-10T07:19:00.316Z,25.33
2022-09-10T07:21:31.289Z,23.33
2022-09-10T07:24:03.601Z,21.13
2022-09-10T07:26:33.874Z,18.08
2022-09-10T07:29:01.160Z,19.58
2022-09-10T07:31:30.674Z,19.92
2022-09-10T07:34:01.552Z,18.10
2022-09-10T07:36:29.710Z,22.98
2022-09-10T07:39:03.582Z,21.02
2022-09-10T07:41:34.188Z,23.23
2022-09-10T07:44:03.880Z,20.08
2022-09-10T07:46:34.101Z,22.23
2022-09-10T07:49:04.929Z,23.63
2022-09-10T07:51:37.868Z,22.95
2022-09-10T07:54:07.995Z,18.90
2022-09-10T07:56:35.460Z,23.33
2022-09-10T07:59:02.705Z,20.15
2022-09-10T08:01:32.612Z,21.73
2022-09-10T08:04:00.116Z,22.30
2022-09-10T08:06:27.340Z,26.88
2022-09-10T08:08:55.194Z,24.35
2022-09-10T08:11:22.376Z,23.90
2022-09-10T08:13:51.807Z,21.77
2022-09-10T08:16:21.625Z,24.85
2022-09-10T08:18:55.700Z,22.48
2022-09-10T08:21:23.660Z,22.85
2022-09-10T08:23:54.081Z,20.42
2022-09-10T08:26:23.800Z,23.85
2022-09-10T08:28:57.825Z,21.73
2022-09-10T08:31:26.540Z,18.10
2022-09-10T08:33:58.425Z,20.20
2022-09-10T08:36:28.764Z,18.27
2022-09-10T08:39:03.083Z,18.30
2022-09-10T08:41:45.316Z,18.83
2022-09-10T08:45:05.618Z,19.33
2022-09-10T08:47:53.500Z,20.55
2022-09-10T08:50:27.908Z,19.30
2022-09-10T08:53:29.883Z,19.30
2022-09-10T08:56:04.071Z,17.90
2022-09-10T08:58:54.492Z,22.30
2022-09-10T09:01:49.501Z,20.40
2022-09-10T09:04:38.670Z,21.38
2022-09-10T09:07:14.188Z,17.92
2022-09-10T09:09:42.832Z,17.50
2022-09-10T09:12:37.987Z,17.20
2022-09-10T09:15:23.168Z,18.30
2022-09-10T09:18:06.715Z,19.88
2022-09-10T09:20:48.478Z,14.57
2022-09-10T09:24:11.803Z,16.55
2022-09-10T09:26:38.157Z,13.13
2022-09-10T09:29:19.066Z,16.48
2022-09-10T09:31:59.706Z,14.90
2022-09-10T09:34:36.383Z,15.25
2022-09-10T09:37:10.211Z,18.88
2022-09-10T09:40:04.825Z,18.27
2022-09-10T09:42:41.378Z,17.95
2022-09-10T09:45:25.367Z,17.00
2022-09-10T09:47:54.564Z,15.90
2022-09-10T09:50:24.914Z,15.05
2022-09-10T09:52:58.930Z,15.65
2022-09-10T09:55:39.877Z,13.55
2022-09-10T09:58:30.568Z,12.57
2022-09-10T10:01:14.564Z,14.38
2022-09-10T10:04:01.099Z,11.38
2022-09-10T10:06:33.272Z,12.68
2022-09-10T10:09:20.132Z,11.02
2022-09-10T10:11:49.761Z,13.63
2022-09-10T10:14:24.237Z,13.02
2022-09-10T10:16:57.416Z,13.32
2022-09-10T10:19:38.474Z,13.98
2022-09-10T10:22:27.118Z,11.43
2022-09-10T10:24:57.565Z,11.20
2022-09-10T10:27:32.693Z,12.10
2022-09-10T10:30:03.654Z,13.73
2022-09-10T10:32:44.760Z,12.35
2022-09-10T10:35:32.841Z,11.18
2022-09-10T10:38:27.289Z,11.20
2022-09-10T10:41:03.440Z,11.80
2022-09-10T10:43:52.205Z,11.80
2022-09-10T10:46:54.263Z,16.95
2022-09-10T10:49:57.234Z,11.10
2022-09-10T10:52:27.160Z,12.88
2022-09-10T10:55:20.991Z,13.93
2022-09-10T10:57:51.011Z,15.98
2022-09-10T11:00:20.748Z,11.77
2022-09-10T11:03:03.736Z,11.40
2022-09-10T11:05:38.593Z,10.50
2022-09-10T11:08:29.586Z,10.13
2022-09-10T11:11:14.324Z,11.57
2022-09-10T11:13:55.140Z,10.00
2022-09-10T11:16:42.755Z,8.07
2022-09-10T11:19:25.513Z,8.70
2022-09-10T11:22:01.284Z,9.68
2022-09-10T11:25:22.024Z,7.97
2022-09-10T11:28:00.828Z,9.02
2022-09-10T11:30:28.414Z,10.43
2022-09-10T11:33:13.550Z,8.82
2022-09-10T11:36:08.455Z,9.43
2022-09-10T11:38:53.234Z,9.25
2022-09-10T11:41:31.453Z,8.35
2022-09-10T11:43:58.650Z,7.13
2022-09-10T11:46:49.617Z,8.98
2022-09-10T11:49:49.447Z,10.20
2022-09-10T11:52:18.182Z,8.00
2022-09-10T11:54:49.737Z,8.75
2022-09-10T11:57:39.459Z,12.32
2022-09-10T12:00:17.213Z,10.18
2022-09-10T12:03:24.680Z,12.05
2022-09-10T12:06:07.562Z,10.43
2022-09-10T12:08:51.978Z,8.87
2022-09-10T12:11:27.290Z,8.55
2022-09-10T12:13:57.418Z,10.80
2022-09-10T12:16:44.362Z,11.38
2022-09-10T12:19:29.308Z,10.98
2022-09-10T12:22:04.927Z,9.25
2022-09-10T12:24:41.480Z,8.88
2022-09-10T12:27:21.053Z,7.57
2022-09-10T12:29:49.226Z,8.45
2022-09-10T12:32:19.563Z,8.23
2022-09-10T12:34:51.158Z,11.88
2022-09-10T12:37:26.429Z,8.00
2022-09-10T12:40:35.911Z,10.07
2022-09-10T12:43:43.996Z,9.25
2022-09-10T12:46:22.805Z,9.07
2022-09-10T12:48:56.581Z,9.77
2022-09-10T12:51:32.673Z,7.60
2022-09-10T12:54:30.167Z,8.25
2022-09-10T12:57:30.875Z,9.93
2022-09-10T13:00:18.373Z,6.07
2022-09-10T13:02:54.590Z,10.75
2022-09-10T13:05:48.622Z,8.40
2022-09-10T13:10:50.039Z,8.80
2022-09-10T13:13:37.728Z,10.45
2022-09-10T13:16:09.857Z,7.53
2022-09-10T13:18:38.139Z,7.82
2022-09-10T13:21:40.767Z,6.72
2022-09-10T13:24:55.669Z,8.93
2022-09-10T13:27:43.597Z,6.93
2022-09-10T13:30:16.147Z,8.57
2022-09-10T13:32:58.998Z,8.00
2022-09-10T13:36:03.780Z,6.73
2022-09-10T13:38:45.555Z,8.05
2022-09-10T13:41:29.437Z,6.50
2022-09-10T13:44:28.921Z,7.03
2022-09-10T13:47:03.300Z,7.40
2022-09-10T13:49:51.859Z,5.93
2022-09-10T13:52:24.670Z,6.22
2022-09-10T13:54:56.613Z,6.68
2022-09-10T13:57:42.512Z,7.40
2022-09-10T14:00:37.062Z,6.75
2022-09-10T14:03:21.206Z,7.50
2022-09-10T14:06:00.303Z,7.07
2022-09-10T14:08:47.918Z,7.35
2022-09-10T14:11:21.964Z,6.00
2022-09-10T14:14:03.252Z,7.25
2022-09-10T14:16:41.564Z,5.53
2022-09-10T14:19:18.839Z,10.07
2022-09-10T14:21:51.706Z,8.15
2022-09-10T14:24:48.885Z,8.73
2022-09-10T14:27:39.018Z,6.95
2022-09-10T14:30:18.434Z,5.78
2022-09-10T14:32:48.853Z,6.30
2022-09-10T14:35:34.685Z,6.80
2022-09-10T14:38:06.712Z,7.45
2022-09-10T14:40:40.550Z,7.38
2022-09-10T14:43:35.398Z,6.95
2022-09-10T14:46:04.737Z,7.90
2022-09-10T14:48:41.040Z,4.80
2022-09-10T14:51:24.560Z,7.53
2022-09-10T14:53:53.966Z,5.30
2022-09-10T14:56:37.517Z,9.20
2022-09-10T14:59:18.788Z,6.80
2022-09-10T15:01:48.544Z,4.18
2022-09-10T15:04:23.577Z,9.23
2022-09-10T15:06:55.628Z,7.38
2022-09-10T15:09:24.347Z,4.30
2022-09-10T15:11:55.739Z,4.07
2022-09-10T15:14:25.086Z,5.53
2022-09-10T15:16:54.801Z,4.95
2022-09-10T15:19:25.337Z,3.95
2022-09-10T15:21:56.150Z,7.32
2022-09-10T15:24:24.288Z,4.47
2022-09-10T15:26:54.229Z,6.05
2022-09-10T15:29:23.802Z,4.68
2022-09-10T15:31:53.368Z,5.32
2022-09-10T15:34:23.697Z,4.20
2022-09-10T15:36:53.257Z,5.43
2022-09-10T15:39:25.383Z,4.15
2022-09-10T15:41:52.675Z,5.13
2022-09-10T15:44:25.304Z,4.05
2022-09-10T15:46:52.555Z,4.07
2022-09-10T15:49:19.783Z,4.47
2022-09-10T15:51:47.946Z,4.70
2022-09-10T15:54:15.622Z,4.43
2022-09-10T15:56:42.850Z,5.60
2022-09-10T15:59:10.323Z,4.20
2022-09-10T16:01:40.848Z,6.18
2022-09-10T16:04:08.490Z,4.57
2022-09-10T16:06:39.271Z,5.55
2022-09-10T16:09:11.206Z,7.18
2022-09-10T16:11:41.067Z,7.53
2022-09-10T16:14:12.726Z,3.78
2022-09-10T16:16:43.785Z,4.65
2022-09-10T16:19:15.981Z,5.50
2022-09-10T16:21:45.755Z,4.72
2022-09-10T16:24:12.978Z,4.50
2022-09-10T16:26:43.670Z,3.53
2022-09-10T16:29:19.539Z,4.25
2022-09-10T16:31:46.938Z,4.53
2022-09-10T16:34:18.390Z,5.78
2022-09-10T16:36:48.945Z,4.03
2022-09-10T16:39:22.170Z,4.47
2022-09-10T16:41:50.961Z,7.63
2022-09-10T16:44:19.605Z,7.57
2022-09-10T16:46:47.567Z,5.15
2022-09-10T16:49:18.215Z,6.32
2022-09-10T16:51:49.237Z,6.93
2022-09-10T16:54:19.967Z,6.82
2022-09-10T16:56:48.791Z,8.98
2022-09-10T16:59:24.315Z,7.03
2022-09-10T17:01:53.016Z,6.50
2022-09-10T17:04:28.158Z,7.93
2022-09-10T17:06:58.061Z,6.32
2022-09-10T17:09:28.334Z,8.07
2022-09-10T17:11:56.219Z,7.97
2022-09-10T17:14:24.263Z,6.65
2022-09-10T17:16:52.206Z,6.03
2022-09-10T17:19:23.451Z,7.38
2022-09-10T17:21:55.241Z,6.78
2022-09-10T17:24:26.746Z,7.38
2022-09-10T17:26:56.748Z,5.88
2022-09-10T17:29:25.864Z,4.22
2022-09-10T17:31:54.797Z,7.30
2022-09-10T17:34:24.648Z,5.45
2022-09-10T17:36:52.752Z,6.07
2022-09-10T17:39:20.239Z,4.07
2022-09-10T17:41:48.348Z,4.85
2022-09-10T17:44:18.187Z,7.30
2022-09-10T17:46:46.391Z,8.38
2022-09-10T17:49:17.178Z,5.40
2022-09-10T17:51:47.428Z,10.27
2022-09-10T17:54:15.302Z,5.55
2022-09-10T17:56:43.363Z,5.13
2022-09-10T17:59:14.208Z,6.30
2022-09-10T18:01:46.705Z,7.40
2022-09-10T18:04:14.507Z,6.60
2022-09-10T18:06:42.042Z,6.18
2022-09-10T18:09:09.750Z,5.32
2022-09-10T18:11:39.801Z,6.03
2022-09-10T18:14:13.778Z,5.75
2022-09-10T18:16:43.524Z,9.43
2022-09-10T18:19:16.603Z,7.38
2022-09-10T18:21:46.368Z,5.63
2022-09-10T18:24:17.226Z,5.70
2022-09-10T18:26:47.652Z,8.35
2022-09-10T18:29:27.208Z,7.07
2022-09-10T18:31:57.514Z,5.63
2022-09-10T18:34:27.795Z,7.70
2022-09-10T18:36:58.526Z,6.53
2022-09-10T18:39:29.985Z,7.55
2022-09-10T18:42:03.537Z,7.40
2022-09-10T18:44:34.832Z,6.68
2022-09-10T18:47:03.265Z,8.75
2022-09-10T18:49:30.572Z,6.68
2022-09-10T18:52:00.988Z,7.57
2022-09-10T18:54:31.768Z,5.82
2022-09-10T18:57:01.706Z,5.65
2022-09-10T18:59:29.461Z,7.05
2022-09-10T19:01:57.422Z,4.68
2022-09-10T19:04:27.393Z,5.70
2022-09-10T19:06:55.711Z,8.52
2022-09-10T19:09:29.016Z,7.50
2022-09-10T19:12:00.398Z,6.47
2022-09-10T19:14:30.511Z,5.22
2022-09-10T19:16:59.863Z,5.82
2022-09-10T19:19:31.769Z,8.25
2022-09-10T19:22:07.225Z,5.93
2022-09-10T19:24:54.086Z,6.45
2022-09-10T19:27:22.823Z,7.50
2022-09-10T19:29:50.337Z,7.30
2022-09-10T19:32:20.417Z,5.63
2022-09-10T19:34:55.385Z,6.97
2022-09-10T19:37:23.316Z,8.07
2022-09-10T19:39:51.043Z,6.50
2022-09-10T19:42:18.723Z,5.32
2022-09-10T19:44:46.493Z,8.20
2022-09-10T19:47:16.200Z,7.97
2022-09-10T19:49:44.053Z,7.78
2022-09-10T19:52:11.301Z,7.25
2022-09-10T19:54:40.826Z,7.78
2022-09-10T19:57:10.266Z,6.82
2022-09-10T19:59:37.760Z,6.93
2022-09-10T20:02:05.136Z,7.15
2022-09-10T20:04:33.259Z,6.60
2022-09-10T20:07:02.573Z,8.95
2022-09-10T20:09:29.841Z,5.97
2022-09-10T20:11:57.630Z,8.13
2022-09-10T20:14:25.412Z,9.77
2022-09-10T20:16:54.919Z,8.07
2022-09-10T20:19:22.529Z,6.38
2022-09-10T20:21:52.417Z,6.20
2022-09-10T20:24:22.143Z,7.25
2022-09-10T20:26:49.911Z,7.32
2022-09-10T20:29:19.188Z,8.13
2022-09-10T20:31:47.136Z,9.45
2022-09-10T20:34:19.499Z,7.07
2022-09-10T20:36:48.252Z,9.32
2022-09-10T20:39:18.472Z,8.73
2022-09-10T20:41:47.266Z,8.80
2022-09-10T20:44:16.468Z,9.75
2022-09-10T20:46:44.774Z,8.23
2022-09-10T20:49:13.953Z,9.18
2022-09-10T20:51:46.834Z,11.48
2022-09-10T20:54:16.853Z,6.63
2022-09-10T20:56:48.211Z,9.85
2022-09-10T20:59:17.918Z,8.93
2022-09-10T21:01:46.968Z,8.38
2022-09-10T21:04:19.901Z,8.48
2022-09-10T21:06:47.125Z,8.57
2022-09-10T21:09:14.863Z,9.65
2022-09-10T21:11:43.569Z,6.50
2022-09-10T21:14:12.471Z,8.93
2022-09-10T21:16:43.167Z,9.15
2022-09-10T21:19:16.038Z,10.45
2022-09-10T21:21:48.995Z,11.88
2022-09-10T21:24:19.516Z,11.55
2022-09-10T21:26:46.749Z,7.60
2022-09-10T21:29:16.580Z,10.07
2022-09-10T21:31:45.382Z,9.25
2022-09-10T21:34:17.758Z,8.27
2022-09-10T21:36:48.752Z,6.47
2022-09-10T21:39:17.906Z,8.55
2022-09-10T21:41:47.937Z,7.70
2022-09-10T21:44:17.957Z,10.07
2022-09-10T21:46:48.610Z,8.40
2022-09-10T21:49:16.957Z,9.90
2022-09-10T21:51:46.870Z,8.90
2022-09-10T21:54:20.662Z,8.10
2022-09-10T21:56:54.411Z,7.07
2022-09-10T21:59:25.464Z,7.35
2022-09-10T22:01:53.632Z,8.38
2022-09-10T22:04:23.537Z,8.13
2022-09-10T22:06:53.904Z,8.93
2022-09-10T22:09:21.818Z,9.40
2022-09-10T22:11:51.844Z,9.18
2022-09-10T22:14:22.625Z,9.60
2022-09-10T22:16:53.013Z,7.68
2022-09-10T22:19:24.067Z,14.38
2022-09-10T22:21:54.618Z,9.07
2022-09-10T22:24:22.193Z,7.40
2022-09-10T22:26:49.527Z,7.90
2022-09-10T22:29:18.574Z,7.30
2022-09-10T22:31:46.974Z,9.18
2022-09-10T22:34:16.310Z,8.10
2022-09-10T22:36:45.258Z,8.00
2022-09-10T22:39:18.031Z,9.45
2022-09-10T22:41:46.528Z,7.30
2022-09-10T22:44:14.294Z,10.75
2022-09-10T22:46:42.999Z,7.35
2022-09-10T22:49:18.161Z,7.93
2022-09-10T22:51:45.887Z,9.45
2022-09-10T22:54:13.415Z,11.80
2022-09-10T22:56:44.545Z,8.30
2022-09-10T22:59:14.008Z,10.35
2022-09-10T23:01:43.338Z,7.53
2022-09-10T23:04:14.192Z,8.88
2022-09-10T23:06:41.446Z,11.13
2022-09-10T23:09:14.929Z,10.52
2022-09-10T23:14:16.631Z,11.07
2022-09-10T23:16:48.485Z,9.77
2022-09-10T23:19:20.130Z,12.70
2022-09-10T23:21:51.080Z,8.85
2022-09-10T23:24:21.922Z,8.75
2022-09-10T23:26:53.792Z,10.60
2022-09-10T23:29:22.979Z,11.35
2022-09-10T23:31:54.462Z,7.75
2022-09-10T23:34:53.801Z,8.85
2022-09-10T23:37:21.006Z,11.55
2022-09-10T23:39:52.953Z,14.02
2022-09-10T23:42:22.425Z,10.82
2022-09-10T23:44:49.627Z,9.93
2022-09-10T23:47:17.379Z,8.48
2022-09-10T23:49:44.610Z,8.75
2022-09-10T23:52:15.385Z,8.38
2022-09-10T23:54:42.598Z,9.00
2022-09-10T23:57:10.782Z,11.45
2022-09-10T23:59:40.315Z,10.45
